DucheSS Of Scandinavia — OUZI2 — position and weather

sailwx.info

Track history (hours):
 
Tides and Currents Weather Stations Pressure Air Temp Water Temp Dewpoint Dewpoint Depression Visibility Wind Speed Wind Dir Waves Ship Positions

DucheSS Of Scandinavia

Operator: DFDS A/S

Last reported at 2019-Oct-23 00:29 UTC. Time now 2019-Oct-23 00:51 UTC.
Position N 59°06' E 010°14'.

Length 134 m; draft 5.4 m.

Type: Passenger vessel. MMSI: 219002929.

Date/timePositionNaut miles runAvg speedWind from/ knotsBaromVisibWave heightAir tempDewpointWater temp
2019-Oct-23 00:29N 59°06' E 010°14'0 0.0
2019-Oct-22 23:59N 59°06' E 010°14'0 0.0
2019-Oct-22 23:30N 59°06' E 010°14'0 0.0
2019-Oct-22 23:00N 59°06' E 010°14'0 0.0
2019-Oct-22 22:30N 59°06' E 010°14'0 0.0
2019-Oct-22 21:58N 59°06' E 010°14'0 0.0
2019-Oct-22 21:28N 59°06' E 010°14'0 0.0
2019-Oct-22 20:58N 59°06' E 010°14'0 0.0
2019-Oct-22 20:29N 59°06' E 010°14'0 0.0
2019-Oct-22 19:59N 59°06' E 010°14'1 3.0
2019-Oct-22 19:30N 59°08' E 010°14'1 2.1
2019-Oct-22 19:00N 59°07' E 010°14'713.7
2019-Oct-22 18:31N 59°00' E 010°20'713.6
2019-Oct-22 18:00N 58°60' E 010°33'612.3
2019-Oct-22 17:31N 59°01' E 010°44'714.2
2019-Oct-22 17:00N 59°00' E 010°58'714.1
2019-Oct-22 16:30N 58°56' E 011°09'1 1.0
2019-Oct-22 16:00N 58°56' E 011°10'4 8.6
2019-Oct-22 15:30N 58°58' E 011°03'815.6
2019-Oct-22 15:00N 59°01' E 010°49'715.0
2019-Oct-22 14:30N 58°60' E 010°35'714.8
2019-Oct-22 14:00N 59°00' E 010°21'713.3
2019-Oct-22 13:30N 59°06' E 010°14'2 3.3
2019-Oct-22 13:01N 59°08' E 010°14'0 0.0
2019-Oct-22 12:30N 59°08' E 010°14'5 9.5
2019-Oct-22 12:00N 59°03' E 010°15'714.3
2019-Oct-22 11:30N 58°60' E 010°28'815.2
2019-Oct-22 11:00N 59°01' E 010°42'714.9
2019-Oct-22 10:30N 59°01' E 010°57'815.3
2019-Oct-22 10:00N 58°56' E 011°08'1 1.9
2019-Oct-22 09:30N 58°56' E 011°10'0 0.0
2019-Oct-22 09:00N 58°56' E 011°10'4 8.2
2019-Oct-22 08:30N 58°58' E 011°03'917.3
2019-Oct-22 08:00N 59°02' E 010°48'817.0
2019-Oct-22 07:30N 58°59' E 010°32'816.4
2019-Oct-22 07:01N 59°01' E 010°17'612.8
2019-Oct-22 06:30N 59°07' E 010°14'0 0.4
2019-Oct-22 06:00N 59°08' E 010°14'0 0.6
2019-Oct-22 05:30N 59°07' E 010°14'1 2.2
2019-Oct-22 05:00N 59°06' E 010°14'0 0.0
2019-Oct-22 04:30N 59°06' E 010°14'0 0.0
2019-Oct-22 04:00N 59°06' E 010°14'0 0.0
2019-Oct-22 03:28N 59°06' E 010°14'0 0.0
2019-Oct-22 02:58N 59°06' E 010°14'0 0.0
2019-Oct-22 02:28N 59°06' E 010°14'0 0.0
2019-Oct-22 01:59N 59°06' E 010°14'0 0.0
2019-Oct-22 01:29N 59°06' E 010°14'0 0.0
2019-Oct-22 00:59N 59°06' E 010°14'0 0.0
2019-Oct-22 00:30N 59°06' E 010°14'0 0.0
2019-Oct-22 00:00N 59°06' E 010°14'0 0.0
2019-Oct-21 23:30N 59°06' E 010°14'0 0.0
2019-Oct-21 22:58N 59°06' E 010°14'0 0.0
2019-Oct-21 22:28N 59°06' E 010°14'0 0.0
2019-Oct-21 21:58N 59°06' E 010°14'0 0.0
2019-Oct-21 21:29N 59°06' E 010°14'0 0.0
2019-Oct-21 20:59N 59°06' E 010°14'0 0.0
2019-Oct-21 20:29N 59°06' E 010°14'0 0.0
2019-Oct-21 20:00N 59°06' E 010°14'1 1.8
2019-Oct-21 19:30N 59°07' E 010°14'0 0.8
2019-Oct-21 19:00N 59°07' E 010°14'611.4
2019-Oct-21 18:31N 59°02' E 010°16'714.8
2019-Oct-21 18:01N 59°00' E 010°30'815.9
2019-Oct-21 17:31N 59°02' E 010°45'815.2
2019-Oct-21 17:00N 58°60' E 010°59'612.9
2019-Oct-21 16:31N 58°56' E 011°10'0 0.5
2019-Oct-21 16:00N 58°56' E 011°10'5 9.2
2019-Oct-21 15:30N 58°58' E 011°02'815.0
2019-Oct-21 15:00N 59°01' E 010°49'714.6
2019-Oct-21 14:30N 59°01' E 010°35'714.4
2019-Oct-21 14:00N 59°01' E 010°21'612.2
2019-Oct-21 13:30N 59°06' E 010°14'2 3.1
2019-Oct-21 13:00N 59°08' E 010°14'0 0.5
2019-Oct-21 12:30N 59°07' E 010°14'611.4
2019-Oct-21 12:01N 59°02' E 010°16'713.9
2019-Oct-21 11:31N 59°00' E 010°29'714.5
2019-Oct-21 11:01N 59°01' E 010°43'714.4
2019-Oct-21 10:30N 59°00' E 010°57'714.2
2019-Oct-21 10:00N 58°56' E 011°08'1 2.2
2019-Oct-21 09:30N 58°56' E 011°10'0 0.5
2019-Oct-21 09:00N 58°56' E 011°10'713.2
2019-Oct-21 08:30N 58°59' E 010°59'714.8
2019-Oct-21 08:01N 59°02' E 010°45'815.2
2019-Oct-21 07:31N 59°00' E 010°31'714.6
2019-Oct-21 07:00N 59°02' E 010°17'612.0
2019-Oct-21 06:30N 59°07' E 010°14'0 0.4
2019-Oct-21 06:00N 59°08' E 010°14'0 0.4
2019-Oct-21 05:30N 59°07' E 010°14'1 2.4
2019-Oct-21 04:59N 59°06' E 010°14'0 0.0
2019-Oct-21 04:30N 59°06' E 010°14'0 0.0
2019-Oct-21 04:00N 59°06' E 010°14'0 0.0
2019-Oct-21 03:30N 59°06' E 010°14'0 0.0
2019-Oct-21 02:58N 59°06' E 010°14'0 0.0
2019-Oct-21 02:28N 59°06' E 010°14'0 0.0
2019-Oct-21 01:58N 59°06' E 010°14'0 0.0
2019-Oct-21 01:29N 59°06' E 010°14'0 0.0
2019-Oct-21 00:59N 59°06' E 010°14'0 0.0
2019-Oct-21 00:29N 59°06' E 010°14'0 0.0
2019-Oct-21 00:00N 59°06' E 010°14'0 0.0
2019-Oct-20 23:30N 59°06' E 010°14'0 0.0
2019-Oct-20 23:00N 59°06' E 010°14'0 0.0
2019-Oct-20 22:28N 59°06' E 010°14'0 0.0
2019-Oct-20 21:58N 59°06' E 010°14'0 0.0
2019-Oct-20 21:28N 59°06' E 010°14'0 0.0
2019-Oct-20 20:59N 59°06' E 010°14'0 0.0
2019-Oct-20 20:29N 59°06' E 010°14'0 0.0
2019-Oct-20 19:59N 59°06' E 010°14'1 1.9
2019-Oct-20 19:30N 59°07' E 010°14'0 0.6
2019-Oct-20 19:00N 59°07' E 010°14'611.5
2019-Oct-20 18:31N 59°02' E 010°16'815.3
2019-Oct-20 18:00N 59°00' E 010°31'815.7
2019-Oct-20 17:31N 59°02' E 010°46'815.5
2019-Oct-20 17:00N 58°59' E 011°00'612.1
2019-Oct-20 16:30N 58°56' E 011°10'0 0.1
2019-Oct-20 16:00N 58°56' E 011°10'4 8.9
2019-Oct-20 15:30N 58°58' E 011°02'714.6
2019-Oct-20 15:00N 59°01' E 010°50'714.8
2019-Oct-20 14:30N 59°01' E 010°35'714.4
2019-Oct-20 14:00N 59°01' E 010°21'612.6
2019-Oct-20 13:30N 59°06' E 010°14'2 3.2
2019-Oct-20 13:00N 59°08' E 010°14'1 1.3
2019-Oct-20 12:30N 59°07' E 010°14'611.7
2019-Oct-20 12:01N 59°01' E 010°17'815.2
2019-Oct-20 11:30N 59°00' E 010°32'815.2
2019-Oct-20 11:01N 59°02' E 010°46'815.3
2019-Oct-20 10:30N 58°59' E 011°00'611.9
2019-Oct-20 10:00N 58°56' E 011°10'0 0.0
2019-Oct-20 09:30N 58°56' E 011°10'0 0.3
2019-Oct-20 09:00N 58°56' E 011°10'612.6
2019-Oct-20 08:31N 58°59' E 010°60'815.1
2019-Oct-20 08:01N 59°01' E 010°46'815.4
2019-Oct-20 07:30N 59°00' E 010°31'714.5
2019-Oct-20 07:01N 59°01' E 010°17'612.0
2019-Oct-20 06:30N 59°07' E 010°14'0 0.5
2019-Oct-20 06:01N 59°08' E 010°14'1 1.0
2019-Oct-20 05:30N 59°07' E 010°14'1 1.6
2019-Oct-20 04:57N 59°06' E 010°14'0 0.0
2019-Oct-20 04:30N 59°06' E 010°14'0 0.0
2019-Oct-20 04:00N 59°06' E 010°14'0 0.0
2019-Oct-20 03:28N 59°06' E 010°14'0 0.0
2019-Oct-20 02:58N 59°06' E 010°14'0 0.0
2019-Oct-20 02:28N 59°06' E 010°14'0 0.0
2019-Oct-20 01:59N 59°06' E 010°14'0 0.0
2019-Oct-20 01:29N 59°06' E 010°14'0 0.0
2019-Oct-20 00:59N 59°06' E 010°14'0 0.0
2019-Oct-20 00:30N 59°06' E 010°14'0 0.0
2019-Oct-20 00:00N 59°06' E 010°14'0 0.0
2019-Oct-19 23:30N 59°06' E 010°14'0 0.0
2019-Oct-19 22:58N 59°06' E 010°14'0 0.0
2019-Oct-19 22:28N 59°06' E 010°14'0 0.0
2019-Oct-19 21:59N 59°06' E 010°14'0 0.0
2019-Oct-19 21:29N 59°06' E 010°14'0 0.0
2019-Oct-19 20:59N 59°06' E 010°14'0 0.0
2019-Oct-19 20:30N 59°06' E 010°14'0 0.0
2019-Oct-19 20:00N 59°06' E 010°14'1 2.1
2019-Oct-19 19:30N 59°07' E 010°14'0 0.5
2019-Oct-19 19:01N 59°07' E 010°14'611.4
2019-Oct-19 18:30N 59°02' E 010°16'714.8
2019-Oct-19 18:00N 58°60' E 010°30'815.2
2019-Oct-19 17:30N 59°02' E 010°44'815.3
2019-Oct-19 17:00N 58°60' E 010°59'713.7
2019-Oct-19 16:30N 58°56' E 011°09'0 0.7
2019-Oct-19 16:00N 58°56' E 011°10'5 9.2
2019-Oct-19 15:30N 58°58' E 011°02'815.9
2019-Oct-19 15:00N 59°02' E 010°49'816.0
2019-Oct-19 14:30N 58°59' E 010°34'815.1
2019-Oct-19 14:00N 59°00' E 010°19'713.8
2019-Oct-19 13:30N 59°07' E 010°14'1 1.8
2019-Oct-19 13:00N 59°08' E 010°14'0 0.3
2019-Oct-19 12:30N 59°07' E 010°14'612.2
2019-Oct-19 12:00N 59°01' E 010°17'815.2
2019-Oct-19 11:30N 58°59' E 010°31'815.8
2019-Oct-19 11:01N 59°02' E 010°45'816.0
2019-Oct-19 10:30N 58°59' E 011°00'612.4
2019-Oct-19 10:00N 58°56' E 011°10'0 0.0
2019-Oct-19 09:30N 58°56' E 011°10'0 0.2
2019-Oct-19 09:00N 58°56' E 011°10'713.1
2019-Oct-19 08:30N 58°59' E 010°59'815.2
2019-Oct-19 08:00N 59°02' E 010°45'815.8
2019-Oct-19 07:30N 58°60' E 010°30'815.5
2019-Oct-19 07:01N 59°02' E 010°16'611.4
2019-Oct-19 06:31N 59°07' E 010°14'0 0.3
2019-Oct-19 06:00N 59°08' E 010°14'0 0.9
2019-Oct-19 05:30N 59°07' E 010°14'1 1.8
2019-Oct-19 04:58N 59°06' E 010°14'0 0.0
2019-Oct-19 04:28N 59°06' E 010°14'0 0.0
2019-Oct-19 03:58N 59°06' E 010°14'0 0.0
2019-Oct-19 03:29N 59°06' E 010°14'0 0.0
2019-Oct-19 02:59N 59°06' E 010°14'0 0.0
2019-Oct-19 02:29N 59°06' E 010°14'0 0.0
2019-Oct-19 02:00N 59°06' E 010°14'0 0.0
2019-Oct-19 01:30N 59°06' E 010°14'0 0.0
2019-Oct-19 01:00N 59°06' E 010°14'0 0.0
2019-Oct-19 00:28N 59°06' E 010°14'0 0.0
2019-Oct-18 23:58N 59°06' E 010°14'0 0.0
2019-Oct-18 23:28N 59°06' E 010°14'0 0.0
2019-Oct-18 22:59N 59°06' E 010°14'0 0.0
2019-Oct-18 22:29N 59°06' E 010°14'0 0.0
2019-Oct-18 21:59N 59°06' E 010°14'0 0.0
2019-Oct-18 21:30N 59°06' E 010°14'0 0.0
2019-Oct-18 21:00N 59°06' E 010°14'0 0.0
2019-Oct-18 20:30N 59°06' E 010°14'0 0.0
2019-Oct-18 19:58N 59°06' E 010°14'1 2.2
2019-Oct-18 19:30N 59°07' E 010°14'0 0.3
2019-Oct-18 19:00N 59°07' E 010°14'611.6
2019-Oct-18 18:30N 59°02' E 010°16'715.0
2019-Oct-18 18:01N 59°01' E 010°31'815.6
2019-Oct-18 17:30N 59°02' E 010°45'815.9
2019-Oct-18 17:00N 58°59' E 011°00'612.2
2019-Oct-18 16:30N 58°56' E 011°10'0 0.2
2019-Oct-18 16:00N 58°56' E 011°10'5 9.4
2019-Oct-18 15:30N 58°58' E 011°02'815.2
2019-Oct-18 15:01N 59°01' E 010°49'715.0
2019-Oct-18 14:30N 59°01' E 010°34'715.0
2019-Oct-18 14:01N 59°01' E 010°20'612.2
2019-Oct-18 13:31N 59°07' E 010°14'1 2.0
2019-Oct-18 13:01N 59°08' E 010°14'0 0.5
2019-Oct-18 12:30N 59°07' E 010°14'611.7
2019-Oct-18 12:01N 59°02' E 010°16'714.5
2019-Oct-18 11:30N 59°01' E 010°30'714.8
2019-Oct-18 11:00N 59°02' E 010°44'714.1
2019-Oct-18 10:30N 59°00' E 010°58'714.5
2019-Oct-18 10:00N 58°56' E 011°09'1 1.5
2019-Oct-18 09:30N 58°56' E 011°10'0 0.6
2019-Oct-18 09:01N 58°56' E 011°10'714.1
2019-Oct-18 08:30N 58°60' E 010°58'815.2
2019-Oct-18 08:00N 59°02' E 010°44'715.1
2019-Oct-18 07:31N 59°00' E 010°29'714.6
2019-Oct-18 07:00N 59°02' E 010°15'510.6
2019-Oct-18 06:31N 59°07' E 010°14'0 0.3
2019-Oct-18 06:00N 59°08' E 010°14'1 1.3
2019-Oct-18 05:31N 59°07' E 010°14'1 1.5
2019-Oct-18 04:58N 59°06' E 010°14'0 0.0
2019-Oct-18 04:29N 59°06' E 010°14'0 0.0
2019-Oct-18 03:59N 59°06' E 010°14'0 0.0
2019-Oct-18 03:29N 59°06' E 010°14'0 0.0
2019-Oct-18 03:00N 59°06' E 010°14'0 0.0
2019-Oct-18 02:30N 59°06' E 010°14'0 0.0
2019-Oct-18 02:00N 59°06' E 010°14'0 0.0
2019-Oct-18 01:28N 59°06' E 010°14'0 0.0
2019-Oct-18 00:58N 59°06' E 010°14'0 0.0
2019-Oct-18 00:28N 59°06' E 010°14'0 0.0
2019-Oct-17 23:59N 59°06' E 010°14'0 0.0
2019-Oct-17 23:29N 59°06' E 010°14'0 0.0
2019-Oct-17 22:59N 59°06' E 010°14'0 0.0
2019-Oct-17 22:30N 59°06' E 010°14'0 0.0
2019-Oct-17 22:00N 59°06' E 010°14'0 0.0
2019-Oct-17 21:30N 59°06' E 010°14'0 0.0
2019-Oct-17 20:58N 59°06' E 010°14'0 0.0
2019-Oct-17 20:28N 59°06' E 010°14'0 0.0
2019-Oct-17 20:00N 59°06' E 010°14'1 2.8
2019-Oct-17 19:31N 59°08' E 010°14'0 0.3
2019-Oct-17 19:01N 59°07' E 010°14'611.7
2019-Oct-17 18:30N 59°02' E 010°16'714.5
2019-Oct-17 18:01N 59°00' E 010°30'815.8
2019-Oct-17 17:31N 59°02' E 010°45'815.2
2019-Oct-17 17:00N 58°59' E 010°59'613.0
2019-Oct-17 16:31N 58°56' E 011°10'0 0.4
2019-Oct-17 16:00N 58°56' E 011°10'5 9.8
2019-Oct-17 15:30N 58°58' E 011°02'714.5
2019-Oct-17 15:00N 59°01' E 010°49'714.6
2019-Oct-17 14:31N 59°01' E 010°35'714.5
2019-Oct-17 14:00N 59°01' E 010°21'612.2
2019-Oct-17 13:30N 59°06' E 010°14'2 3.2
2019-Oct-17 13:01N 59°08' E 010°14'0 0.5
2019-Oct-17 12:31N 59°07' E 010°14'611.6
2019-Oct-17 12:00N 59°02' E 010°16'714.3
2019-Oct-17 11:31N 59°01' E 010°30'714.6
2019-Oct-17 11:00N 59°02' E 010°44'714.4
2019-Oct-17 10:31N 59°00' E 010°58'714.3
2019-Oct-17 10:00N 58°56' E 011°09'1 1.5
2019-Oct-17 09:31N 58°56' E 011°10'0 0.5
2019-Oct-17 09:00N 58°56' E 011°10'713.0
2019-Oct-17 08:30N 58°59' E 010°59'714.9
2019-Oct-17 08:01N 59°02' E 010°45'815.0
2019-Oct-17 07:30N 59°00' E 010°31'714.5
2019-Oct-17 07:00N 59°02' E 010°17'611.9
2019-Oct-17 06:30N 59°07' E 010°14'0 0.7
2019-Oct-17 06:00N 59°08' E 010°14'1 1.0
2019-Oct-17 05:30N 59°07' E 010°14'1 1.9
2019-Oct-17 05:00N 59°06' E 010°14'0 0.0
2019-Oct-17 04:28N 59°06' E 010°14'0 0.0
2019-Oct-17 03:58N 59°06' E 010°14'0 0.0
2019-Oct-17 03:28N 59°06' E 010°14'0 0.0
2019-Oct-17 02:59N 59°06' E 010°14'0 0.0
2019-Oct-17 02:29N 59°06' E 010°14'0 0.0
2019-Oct-17 01:59N 59°06' E 010°14'0 0.0
2019-Oct-17 01:30N 59°06' E 010°14'0 0.0
2019-Oct-17 01:00N 59°06' E 010°14'0 0.0
2019-Oct-17 00:30N 59°06' E 010°14'0 0.0
2019-Oct-16 23:58N 59°06' E 010°14'0 0.0
2019-Oct-16 23:28N 59°06' E 010°14'0 0.0
2019-Oct-16 22:58N 59°06' E 010°14'0 0.0
2019-Oct-16 22:29N 59°06' E 010°14'0 0.0
2019-Oct-16 21:59N 59°06' E 010°14'0 0.0
2019-Oct-16 21:29N 59°06' E 010°14'0 0.0
2019-Oct-16 21:00N 59°06' E 010°14'0 0.0
2019-Oct-16 20:30N 59°06' E 010°14'0 0.0
2019-Oct-16 20:00N 59°06' E 010°14'1 1.7
2019-Oct-16 19:31N 59°07' E 010°14'0 0.7
2019-Oct-16 19:00N 59°07' E 010°14'611.5
2019-Oct-16 18:30N 59°02' E 010°16'714.5
2019-Oct-16 18:00N 59°00' E 010°30'815.8
2019-Oct-16 17:31N 59°02' E 010°45'815.1
2019-Oct-16 17:00N 58°60' E 010°59'713.3
2019-Oct-16 16:30N 58°56' E 011°10'0 0.4
2019-Oct-16 16:00N 58°56' E 011°10'4 8.9
2019-Oct-16 15:30N 58°58' E 011°02'714.6
2019-Oct-16 15:01N 59°01' E 010°50'714.8
2019-Oct-16 14:31N 59°01' E 010°36'714.3
2019-Oct-16 14:01N 59°01' E 010°22'612.1
2019-Oct-16 13:30N 59°06' E 010°14'2 3.9
2019-Oct-16 13:00N 59°08' E 010°14'0 0.0
2019-Oct-16 12:30N 59°08' E 010°14'510.1
2019-Oct-16 12:00N 59°03' E 010°15'714.4
2019-Oct-16 11:31N 59°00' E 010°28'815.7
2019-Oct-16 11:00N 59°02' E 010°44'714.9
2019-Oct-16 10:30N 59°00' E 010°58'714.4
2019-Oct-16 10:00N 58°56' E 011°09'1 1.2
2019-Oct-16 09:31N 58°56' E 011°10'0 0.1
2019-Oct-16 09:00N 58°56' E 011°10'612.0
2019-Oct-16 08:30N 58°59' E 011°00'816.2
2019-Oct-16 08:01N 59°02' E 010°45'815.7
2019-Oct-16 07:30N 59°00' E 010°30'714.8
2019-Oct-16 07:00N 59°02' E 010°16'611.6
2019-Oct-16 06:30N 59°07' E 010°14'0 0.4
2019-Oct-16 06:00N 59°08' E 010°14'1 1.1
2019-Oct-16 05:30N 59°07' E 010°14'1 1.8
2019-Oct-16 05:01N 59°06' E 010°14'0 0.0
2019-Oct-16 04:28N 59°06' E 010°14'0 0.0
2019-Oct-16 03:58N 59°06' E 010°14'0 0.0
2019-Oct-16 03:28N 59°06' E 010°14'0 0.0
2019-Oct-16 02:59N 59°06' E 010°14'0 0.0
2019-Oct-16 02:29N 59°06' E 010°14'0 0.0
2019-Oct-16 01:59N 59°06' E 010°14'0 0.0
2019-Oct-16 01:30N 59°06' E 010°14'0 0.0
2019-Oct-16 01:00N 59°06' E 010°14'0 0.0
2019-Oct-16 00:30N 59°06' E 010°14'0 0.0
2019-Oct-15 23:58N 59°06' E 010°14'0 0.0
2019-Oct-15 23:28N 59°06' E 010°14'0 0.0
2019-Oct-15 22:58N 59°06' E 010°14'0 0.0
2019-Oct-15 22:29N 59°06' E 010°14'0 0.0
2019-Oct-15 21:59N 59°06' E 010°14'0 0.0
2019-Oct-15 21:29N 59°06' E 010°14'0 0.0
2019-Oct-15 21:00N 59°06' E 010°14'0 0.0
2019-Oct-15 20:30N 59°06' E 010°14'0 0.0
2019-Oct-15 20:00N 59°06' E 010°14'1 2.5
2019-Oct-15 19:31N 59°07' E 010°14'0 0.4
2019-Oct-15 19:01N 59°08' E 010°14'4 8.7
2019-Oct-15 18:30N 59°03' E 010°15'714.8
2019-Oct-15 18:00N 59°00' E 010°28'816.6
2019-Oct-15 17:30N 59°02' E 010°44'816.3
2019-Oct-15 17:00N 58°60' E 010°59'712.9
2019-Oct-15 16:30N 58°56' E 011°10'0 0.1
2019-Oct-15 16:00N 58°56' E 011°10'5 9.0
2019-Oct-15 15:30N 58°58' E 011°02'714.7
2019-Oct-15 15:00N 59°01' E 010°50'714.7
2019-Oct-15 14:30N 59°00' E 010°36'714.6
2019-Oct-15 14:00N 59°01' E 010°21'612.4
2019-Oct-15 13:31N 59°06' E 010°14'2 3.4
2019-Oct-15 13:01N 59°08' E 010°14'0 0.5
2019-Oct-15 12:31N 59°07' E 010°14'611.6
2019-Oct-15 12:00N 59°02' E 010°16'714.3
2019-Oct-15 11:30N 59°00' E 010°30'815.1
2019-Oct-15 11:00N 59°02' E 010°44'714.8
2019-Oct-15 10:30N 58°60' E 010°58'714.4
2019-Oct-15 10:00N 58°56' E 011°10'0 0.5
2019-Oct-15 09:30N 58°56' E 011°10'0 0.6
2019-Oct-15 09:00N 58°56' E 011°10'713.2
2019-Oct-15 08:30N 58°60' E 010°59'815.3
2019-Oct-15 08:01N 59°02' E 010°45'815.2
2019-Oct-15 07:30N 59°00' E 010°30'714.8
2019-Oct-15 07:01N 59°02' E 010°16'611.6
2019-Oct-15 06:30N 59°07' E 010°14'0 0.3
2019-Oct-15 06:00N 59°08' E 010°14'1 1.5
2019-Oct-15 05:30N 59°07' E 010°14'1 1.4
2019-Oct-15 05:00N 59°06' E 010°14'0 0.0
2019-Oct-15 04:28N 59°06' E 010°14'0 0.0
2019-Oct-15 03:58N 59°06' E 010°14'0 0.0
2019-Oct-15 03:29N 59°06' E 010°14'0 0.0
2019-Oct-15 02:59N 59°06' E 010°14'0 0.0
2019-Oct-15 02:29N 59°06' E 010°14'0 0.0
2019-Oct-15 02:00N 59°06' E 010°14'0 0.0
2019-Oct-15 01:30N 59°06' E 010°14'0 0.0
2019-Oct-15 01:00N 59°06' E 010°14'0 0.0
2019-Oct-15 00:28N 59°06' E 010°14'0 0.0
2019-Oct-14 23:55N 59°06' E 010°14'0 0.0
2019-Oct-14 23:28N 59°06' E 010°14'0 0.0
2019-Oct-14 22:59N 59°06' E 010°14'0 0.0
2019-Oct-14 22:29N 59°06' E 010°14'0 0.0
2019-Oct-14 21:59N 59°06' E 010°14'0 0.0
2019-Oct-14 21:30N 59°06' E 010°14'0 0.0
2019-Oct-14 21:00N 59°06' E 010°14'0 0.0
2019-Oct-14 20:30N 59°06' E 010°14'0 0.0
2019-Oct-14 19:58N 59°06' E 010°14'0 0.4
2019-Oct-14 19:30N 59°06' E 010°14'1 2.5
2019-Oct-14 19:00N 59°08' E 010°14'5 9.6
2019-Oct-14 18:30N 59°03' E 010°15'714.9
2019-Oct-14 18:00N 59°00' E 010°29'815.5
2019-Oct-14 17:30N 59°02' E 010°44'815.5
2019-Oct-14 17:00N 58°60' E 010°59'713.6
2019-Oct-14 16:30N 58°56' E 011°10'0 0.7
2019-Oct-14 16:00N 58°56' E 011°10'5 9.4
2019-Oct-14 15:30N 58°58' E 011°02'714.3
2019-Oct-14 15:00N 59°01' E 010°50'714.6
2019-Oct-14 14:30N 59°01' E 010°35'714.5
2019-Oct-14 14:00N 59°01' E 010°21'612.4
2019-Oct-14 13:30N 59°06' E 010°14'2 3.2
2019-Oct-14 13:01N 59°08' E 010°14'0 0.1
2019-Oct-14 12:31N 59°08' E 010°14'611.3
2019-Oct-14 12:00N 59°02' E 010°16'714.3
2019-Oct-14 11:31N 59°00' E 010°29'714.4
2019-Oct-14 11:01N 59°01' E 010°43'714.6
2019-Oct-14 10:30N 59°00' E 010°57'714.9
2019-Oct-14 10:00N 58°56' E 011°09'1 1.5
2019-Oct-14 09:30N 58°56' E 011°10'0 0.6
2019-Oct-14 09:00N 58°56' E 011°10'713.3
2019-Oct-14 08:30N 58°60' E 010°59'715.1
2019-Oct-14 08:00N 59°02' E 010°45'815.1
2019-Oct-14 07:30N 59°00' E 010°30'714.8
2019-Oct-14 07:00N 59°02' E 010°16'611.9
2019-Oct-14 06:30N 59°07' E 010°14'0 0.5
2019-Oct-14 06:00N 59°08' E 010°14'1 1.4
2019-Oct-14 05:30N 59°07' E 010°14'1 1.4
2019-Oct-14 05:00N 59°06' E 010°14'0 0.0
2019-Oct-14 04:29N 59°06' E 010°14'0 0.0
2019-Oct-14 03:59N 59°06' E 010°14'0 0.0
2019-Oct-14 03:29N 59°06' E 010°14'0 0.0
2019-Oct-14 02:57N 59°06' E 010°14'0 0.0
2019-Oct-14 02:30N 59°06' E 010°14'0 0.0
2019-Oct-14 02:00N 59°06' E 010°14'0 0.0
2019-Oct-14 01:28N 59°06' E 010°14'0 0.0
2019-Oct-14 00:58N 59°06' E 010°14'0 0.0
2019-Oct-14 00:28N 59°06' E 010°14'0 0.0
2019-Oct-13 23:59N 59°06' E 010°14'0 0.0
2019-Oct-13 23:29N 59°06' E 010°14'0 0.0
2019-Oct-13 22:59N 59°06' E 010°14'0 0.0
2019-Oct-13 22:30N 59°06' E 010°14'0 0.0
2019-Oct-13 22:00N 59°06' E 010°14'0 0.0
2019-Oct-13 21:30N 59°06' E 010°14'0 0.0
2019-Oct-13 20:58N 59°06' E 010°14'0 0.0
2019-Oct-13 20:28N 59°06' E 010°14'0 0.0
2019-Oct-13 19:58N 59°06' E 010°14'0 0.2
2019-Oct-13 19:30N 59°06' E 010°14'1 2.7
2019-Oct-13 19:00N 59°08' E 010°14'4 8.7
2019-Oct-13 18:30N 59°03' E 010°15'715.0
2019-Oct-13 18:01N 59°00' E 010°28'816.1
2019-Oct-13 17:31N 59°02' E 010°44'816.0
2019-Oct-13 17:00N 58°60' E 010°59'713.3
2019-Oct-13 16:30N 58°56' E 011°10'0 0.3
2019-Oct-13 16:00N 58°56' E 011°10'510.0
2019-Oct-13 15:30N 58°58' E 011°02'714.9
2019-Oct-13 15:00N 59°02' E 010°49'714.6
2019-Oct-13 14:30N 59°01' E 010°35'714.8
2019-Oct-13 14:01N 59°01' E 010°21'612.6
2019-Oct-13 13:31N 59°06' E 010°14'1 2.6
2019-Oct-13 13:01N 59°08' E 010°14'0 0.1
2019-Oct-13 12:31N 59°08' E 010°14'611.4
2019-Oct-13 12:00N 59°02' E 010°16'714.5
2019-Oct-13 11:30N 59°00' E 010°30'714.2
2019-Oct-13 11:00N 59°02' E 010°43'714.3
2019-Oct-13 10:30N 59°00' E 010°57'814.9
2019-Oct-13 10:00N 58°56' E 011°09'1 1.7
2019-Oct-13 09:30N 58°56' E 011°10'1 1.4
2019-Oct-13 09:00N 58°56' E 011°09'713.8
2019-Oct-13 08:30N 58°60' E 010°58'714.8
2019-Oct-13 08:01N 59°02' E 010°44'815.3
2019-Oct-13 07:30N 58°60' E 010°30'815.0
2019-Oct-13 07:01N 59°02' E 010°16'611.3
2019-Oct-13 06:30N 59°07' E 010°14'0 0.2
2019-Oct-13 06:00N 59°08' E 010°14'1 1.1
2019-Oct-13 05:30N 59°07' E 010°14'1 1.7
2019-Oct-13 05:00N 59°06' E 010°14'0 0.0
2019-Oct-13 04:29N 59°06' E 010°14'0 0.0
2019-Oct-13 03:59N 59°06' E 010°14'0 0.0
2019-Oct-13 03:29N 59°06' E 010°14'0 0.0
2019-Oct-13 03:00N 59°06' E 010°14'0 0.0
2019-Oct-13 02:30N 59°06' E 010°14'0 0.0
2019-Oct-13 02:00N 59°06' E 010°14'0 0.0
2019-Oct-13 01:28N 59°06' E 010°14'0 0.0
2019-Oct-13 00:58N 59°06' E 010°14'  
Track history (hours):
 
Tides and Currents Weather Stations Pressure Air Temp Water Temp Dewpoint Dewpoint Depression Visibility Wind Speed Wind Dir Waves Ship Positions

DucheSS Of Scandinavia

Operator: DFDS A/S

Last reported at 2019-Oct-23 00:29 UTC. Time now 2019-Oct-23 00:51 UTC.
Position N 59°06' E 010°14'.

Length 134 m; draft 5.4 m.

Type: Passenger vessel. MMSI: 219002929.

Date/timePositionNaut miles runAvg speedWind from/ knotsBaromVisibWave heightAir tempDewpointWater temp
2019-Oct-23 00:29N 59°06' E 010°14'0 0.0
2019-Oct-22 23:59N 59°06' E 010°14'0 0.0
2019-Oct-22 23:30N 59°06' E 010°14'0 0.0
2019-Oct-22 23:00N 59°06' E 010°14'0 0.0
2019-Oct-22 22:30N 59°06' E 010°14'0 0.0
2019-Oct-22 21:58N 59°06' E 010°14'0 0.0
2019-Oct-22 21:28N 59°06' E 010°14'0 0.0
2019-Oct-22 20:58N 59°06' E 010°14'0 0.0
2019-Oct-22 20:29N 59°06' E 010°14'0 0.0
2019-Oct-22 19:59N 59°06' E 010°14'1 3.0
2019-Oct-22 19:30N 59°08' E 010°14'1 2.1
2019-Oct-22 19:00N 59°07' E 010°14'713.7
2019-Oct-22 18:31N 59°00' E 010°20'713.6
2019-Oct-22 18:00N 58°60' E 010°33'612.3
2019-Oct-22 17:31N 59°01' E 010°44'714.2
2019-Oct-22 17:00N 59°00' E 010°58'714.1
2019-Oct-22 16:30N 58°56' E 011°09'1 1.0
2019-Oct-22 16:00N 58°56' E 011°10'4 8.6
2019-Oct-22 15:30N 58°58' E 011°03'815.6
2019-Oct-22 15:00N 59°01' E 010°49'715.0
2019-Oct-22 14:30N 58°60' E 010°35'714.8
2019-Oct-22 14:00N 59°00' E 010°21'713.3
2019-Oct-22 13:30N 59°06' E 010°14'2 3.3
2019-Oct-22 13:01N 59°08' E 010°14'0 0.0
2019-Oct-22 12:30N 59°08' E 010°14'5 9.5
2019-Oct-22 12:00N 59°03' E 010°15'714.3
2019-Oct-22 11:30N 58°60' E 010°28'815.2
2019-Oct-22 11:00N 59°01' E 010°42'714.9
2019-Oct-22 10:30N 59°01' E 010°57'815.3
2019-Oct-22 10:00N 58°56' E 011°08'1 1.9
2019-Oct-22 09:30N 58°56' E 011°10'0 0.0
2019-Oct-22 09:00N 58°56' E 011°10'4 8.2
2019-Oct-22 08:30N 58°58' E 011°03'917.3
2019-Oct-22 08:00N 59°02' E 010°48'817.0
2019-Oct-22 07:30N 58°59' E 010°32'816.4
2019-Oct-22 07:01N 59°01' E 010°17'612.8
2019-Oct-22 06:30N 59°07' E 010°14'0 0.4
2019-Oct-22 06:00N 59°08' E 010°14'0 0.6
2019-Oct-22 05:30N 59°07' E 010°14'1 2.2
2019-Oct-22 05:00N 59°06' E 010°14'0 0.0
2019-Oct-22 04:30N 59°06' E 010°14'0 0.0
2019-Oct-22 04:00N 59°06' E 010°14'0 0.0
2019-Oct-22 03:28N 59°06' E 010°14'0 0.0
2019-Oct-22 02:58N 59°06' E 010°14'0 0.0
2019-Oct-22 02:28N 59°06' E 010°14'0 0.0
2019-Oct-22 01:59N 59°06' E 010°14'0 0.0
2019-Oct-22 01:29N 59°06' E 010°14'0 0.0
2019-Oct-22 00:59N 59°06' E 010°14'0 0.0
2019-Oct-22 00:30N 59°06' E 010°14'0 0.0
2019-Oct-22 00:00N 59°06' E 010°14'0 0.0
2019-Oct-21 23:30N 59°06' E 010°14'0 0.0
2019-Oct-21 22:58N 59°06' E 010°14'0 0.0
2019-Oct-21 22:28N 59°06' E 010°14'0 0.0
2019-Oct-21 21:58N 59°06' E 010°14'0 0.0
2019-Oct-21 21:29N 59°06' E 010°14'0 0.0
2019-Oct-21 20:59N 59°06' E 010°14'0 0.0
2019-Oct-21 20:29N 59°06' E 010°14'0 0.0
2019-Oct-21 20:00N 59°06' E 010°14'1 1.8
2019-Oct-21 19:30N 59°07' E 010°14'0 0.8
2019-Oct-21 19:00N 59°07' E 010°14'611.4
2019-Oct-21 18:31N 59°02' E 010°16'714.8
2019-Oct-21 18:01N 59°00' E 010°30'815.9
2019-Oct-21 17:31N 59°02' E 010°45'815.2
2019-Oct-21 17:00N 58°60' E 010°59'612.9
2019-Oct-21 16:31N 58°56' E 011°10'0 0.5
2019-Oct-21 16:00N 58°56' E 011°10'5 9.2
2019-Oct-21 15:30N 58°58' E 011°02'815.0
2019-Oct-21 15:00N 59°01' E 010°49'714.6
2019-Oct-21 14:30N 59°01' E 010°35'714.4
2019-Oct-21 14:00N 59°01' E 010°21'612.2
2019-Oct-21 13:30N 59°06' E 010°14'2 3.1
2019-Oct-21 13:00N 59°08' E 010°14'0 0.5
2019-Oct-21 12:30N 59°07' E 010°14'611.4
2019-Oct-21 12:01N 59°02' E 010°16'713.9
2019-Oct-21 11:31N 59°00' E 010°29'714.5
2019-Oct-21 11:01N 59°01' E 010°43'714.4
2019-Oct-21 10:30N 59°00' E 010°57'714.2
2019-Oct-21 10:00N 58°56' E 011°08'1 2.2
2019-Oct-21 09:30N 58°56' E 011°10'0 0.5
2019-Oct-21 09:00N 58°56' E 011°10'713.2
2019-Oct-21 08:30N 58°59' E 010°59'714.8
2019-Oct-21 08:01N 59°02' E 010°45'815.2
2019-Oct-21 07:31N 59°00' E 010°31'714.6
2019-Oct-21 07:00N 59°02' E 010°17'612.0
2019-Oct-21 06:30N 59°07' E 010°14'0 0.4
2019-Oct-21 06:00N 59°08' E 010°14'0 0.4
2019-Oct-21 05:30N 59°07' E 010°14'1 2.4
2019-Oct-21 04:59N 59°06' E 010°14'0 0.0
2019-Oct-21 04:30N 59°06' E 010°14'0 0.0
2019-Oct-21 04:00N 59°06' E 010°14'0 0.0
2019-Oct-21 03:30N 59°06' E 010°14'0 0.0
2019-Oct-21 02:58N 59°06' E 010°14'0 0.0
2019-Oct-21 02:28N 59°06' E 010°14'0 0.0
2019-Oct-21 01:58N 59°06' E 010°14'0 0.0
2019-Oct-21 01:29N 59°06' E 010°14'0 0.0
2019-Oct-21 00:59N 59°06' E 010°14'0 0.0
2019-Oct-21 00:29N 59°06' E 010°14'0 0.0
2019-Oct-21 00:00N 59°06' E 010°14'0 0.0
2019-Oct-20 23:30N 59°06' E 010°14'0 0.0
2019-Oct-20 23:00N 59°06' E 010°14'0 0.0
2019-Oct-20 22:28N 59°06' E 010°14'0 0.0
2019-Oct-20 21:58N 59°06' E 010°14'0 0.0
2019-Oct-20 21:28N 59°06' E 010°14'0 0.0
2019-Oct-20 20:59N 59°06' E 010°14'0 0.0
2019-Oct-20 20:29N 59°06' E 010°14'0 0.0
2019-Oct-20 19:59N 59°06' E 010°14'1 1.9
2019-Oct-20 19:30N 59°07' E 010°14'0 0.6
2019-Oct-20 19:00N 59°07' E 010°14'611.5
2019-Oct-20 18:31N 59°02' E 010°16'815.3
2019-Oct-20 18:00N 59°00' E 010°31'815.7
2019-Oct-20 17:31N 59°02' E 010°46'815.5
2019-Oct-20 17:00N 58°59' E 011°00'612.1
2019-Oct-20 16:30N 58°56' E 011°10'0 0.1
2019-Oct-20 16:00N 58°56' E 011°10'4 8.9
2019-Oct-20 15:30N 58°58' E 011°02'714.6
2019-Oct-20 15:00N 59°01' E 010°50'714.8
2019-Oct-20 14:30N 59°01' E 010°35'714.4
2019-Oct-20 14:00N 59°01' E 010°21'612.6
2019-Oct-20 13:30N 59°06' E 010°14'2 3.2
2019-Oct-20 13:00N 59°08' E 010°14'1 1.3
2019-Oct-20 12:30N 59°07' E 010°14'611.7
2019-Oct-20 12:01N 59°01' E 010°17'815.2
2019-Oct-20 11:30N 59°00' E 010°32'815.2
2019-Oct-20 11:01N 59°02' E 010°46'815.3
2019-Oct-20 10:30N 58°59' E 011°00'611.9
2019-Oct-20 10:00N 58°56' E 011°10'0 0.0
2019-Oct-20 09:30N 58°56' E 011°10'0 0.3
2019-Oct-20 09:00N 58°56' E 011°10'612.6
2019-Oct-20 08:31N 58°59' E 010°60'815.1
2019-Oct-20 08:01N 59°01' E 010°46'815.4
2019-Oct-20 07:30N 59°00' E 010°31'714.5
2019-Oct-20 07:01N 59°01' E 010°17'612.0
2019-Oct-20 06:30N 59°07' E 010°14'0 0.5
2019-Oct-20 06:01N 59°08' E 010°14'1 1.0
2019-Oct-20 05:30N 59°07' E 010°14'1 1.6
2019-Oct-20 04:57N 59°06' E 010°14'0 0.0
2019-Oct-20 04:30N 59°06' E 010°14'0 0.0
2019-Oct-20 04:00N 59°06' E 010°14'0 0.0
2019-Oct-20 03:28N 59°06' E 010°14'0 0.0
2019-Oct-20 02:58N 59°06' E 010°14'0 0.0
2019-Oct-20 02:28N 59°06' E 010°14'0 0.0
2019-Oct-20 01:59N 59°06' E 010°14'0 0.0
2019-Oct-20 01:29N 59°06' E 010°14'0 0.0
2019-Oct-20 00:59N 59°06' E 010°14'0 0.0
2019-Oct-20 00:30N 59°06' E 010°14'0 0.0
2019-Oct-20 00:00N 59°06' E 010°14'0 0.0
2019-Oct-19 23:30N 59°06' E 010°14'0 0.0
2019-Oct-19 22:58N 59°06' E 010°14'0 0.0
2019-Oct-19 22:28N 59°06' E 010°14'0 0.0
2019-Oct-19 21:59N 59°06' E 010°14'0 0.0
2019-Oct-19 21:29N 59°06' E 010°14'0 0.0
2019-Oct-19 20:59N 59°06' E 010°14'0 0.0
2019-Oct-19 20:30N 59°06' E 010°14'0 0.0
2019-Oct-19 20:00N 59°06' E 010°14'1 2.1
2019-Oct-19 19:30N 59°07' E 010°14'0 0.5
2019-Oct-19 19:01N 59°07' E 010°14'611.4
2019-Oct-19 18:30N 59°02' E 010°16'714.8
2019-Oct-19 18:00N 58°60' E 010°30'815.2
2019-Oct-19 17:30N 59°02' E 010°44'815.3
2019-Oct-19 17:00N 58°60' E 010°59'713.7
2019-Oct-19 16:30N 58°56' E 011°09'0 0.7
2019-Oct-19 16:00N 58°56' E 011°10'5 9.2
2019-Oct-19 15:30N 58°58' E 011°02'815.9
2019-Oct-19 15:00N 59°02' E 010°49'816.0
2019-Oct-19 14:30N 58°59' E 010°34'815.1
2019-Oct-19 14:00N 59°00' E 010°19'713.8
2019-Oct-19 13:30N 59°07' E 010°14'1 1.8
2019-Oct-19 13:00N 59°08' E 010°14'0 0.3
2019-Oct-19 12:30N 59°07' E 010°14'612.2
2019-Oct-19 12:00N 59°01' E 010°17'815.2
2019-Oct-19 11:30N 58°59' E 010°31'815.8
2019-Oct-19 11:01N 59°02' E 010°45'816.0
2019-Oct-19 10:30N 58°59' E 011°00'612.4
2019-Oct-19 10:00N 58°56' E 011°10'0 0.0
2019-Oct-19 09:30N 58°56' E 011°10'0 0.2
2019-Oct-19 09:00N 58°56' E 011°10'713.1
2019-Oct-19 08:30N 58°59' E 010°59'815.2
2019-Oct-19 08:00N 59°02' E 010°45'815.8
2019-Oct-19 07:30N 58°60' E 010°30'815.5
2019-Oct-19 07:01N 59°02' E 010°16'611.4
2019-Oct-19 06:31N 59°07' E 010°14'0 0.3
2019-Oct-19 06:00N 59°08' E 010°14'0 0.9
2019-Oct-19 05:30N 59°07' E 010°14'1 1.8
2019-Oct-19 04:58N 59°06' E 010°14'0 0.0
2019-Oct-19 04:28N 59°06' E 010°14'0 0.0
2019-Oct-19 03:58N 59°06' E 010°14'0 0.0
2019-Oct-19 03:29N 59°06' E 010°14'0 0.0
2019-Oct-19 02:59N 59°06' E 010°14'0 0.0
2019-Oct-19 02:29N 59°06' E 010°14'0 0.0
2019-Oct-19 02:00N 59°06' E 010°14'0 0.0
2019-Oct-19 01:30N 59°06' E 010°14'0 0.0
2019-Oct-19 01:00N 59°06' E 010°14'0 0.0
2019-Oct-19 00:28N 59°06' E 010°14'0 0.0
2019-Oct-18 23:58N 59°06' E 010°14'0 0.0
2019-Oct-18 23:28N 59°06' E 010°14'0 0.0
2019-Oct-18 22:59N 59°06' E 010°14'0 0.0
2019-Oct-18 22:29N 59°06' E 010°14'0 0.0
2019-Oct-18 21:59N 59°06' E 010°14'0 0.0
2019-Oct-18 21:30N 59°06' E 010°14'0 0.0
2019-Oct-18 21:00N 59°06' E 010°14'0 0.0
2019-Oct-18 20:30N 59°06' E 010°14'0 0.0
2019-Oct-18 19:58N 59°06' E 010°14'1 2.2
2019-Oct-18 19:30N 59°07' E 010°14'0 0.3
2019-Oct-18 19:00N 59°07' E 010°14'611.6
2019-Oct-18 18:30N 59°02' E 010°16'715.0
2019-Oct-18 18:01N 59°01' E 010°31'815.6
2019-Oct-18 17:30N 59°02' E 010°45'815.9
2019-Oct-18 17:00N 58°59' E 011°00'612.2
2019-Oct-18 16:30N 58°56' E 011°10'0 0.2
2019-Oct-18 16:00N 58°56' E 011°10'5 9.4
2019-Oct-18 15:30N 58°58' E 011°02'815.2
2019-Oct-18 15:01N 59°01' E 010°49'715.0
2019-Oct-18 14:30N 59°01' E 010°34'715.0
2019-Oct-18 14:01N 59°01' E 010°20'612.2
2019-Oct-18 13:31N 59°07' E 010°14'1 2.0
2019-Oct-18 13:01N 59°08' E 010°14'0 0.5
2019-Oct-18 12:30N 59°07' E 010°14'611.7
2019-Oct-18 12:01N 59°02' E 010°16'714.5
2019-Oct-18 11:30N 59°01' E 010°30'714.8
2019-Oct-18 11:00N 59°02' E 010°44'714.1
2019-Oct-18 10:30N 59°00' E 010°58'714.5
2019-Oct-18 10:00N 58°56' E 011°09'1 1.5
2019-Oct-18 09:30N 58°56' E 011°10'0 0.6
2019-Oct-18 09:01N 58°56' E 011°10'714.1
2019-Oct-18 08:30N 58°60' E 010°58'815.2
2019-Oct-18 08:00N 59°02' E 010°44'715.1
2019-Oct-18 07:31N 59°00' E 010°29'714.6
2019-Oct-18 07:00N 59°02' E 010°15'510.6
2019-Oct-18 06:31N 59°07' E 010°14'0 0.3
2019-Oct-18 06:00N 59°08' E 010°14'1 1.3
2019-Oct-18 05:31N 59°07' E 010°14'1 1.5
2019-Oct-18 04:58N 59°06' E 010°14'0 0.0
2019-Oct-18 04:29N 59°06' E 010°14'0 0.0
2019-Oct-18 03:59N 59°06' E 010°14'0 0.0
2019-Oct-18 03:29N 59°06' E 010°14'0 0.0
2019-Oct-18 03:00N 59°06' E 010°14'0 0.0
2019-Oct-18 02:30N 59°06' E 010°14'0 0.0
2019-Oct-18 02:00N 59°06' E 010°14'0 0.0
2019-Oct-18 01:28N 59°06' E 010°14'0 0.0
2019-Oct-18 00:58N 59°06' E 010°14'0 0.0
2019-Oct-18 00:28N 59°06' E 010°14'0 0.0
2019-Oct-17 23:59N 59°06' E 010°14'0 0.0
2019-Oct-17 23:29N 59°06' E 010°14'0 0.0
2019-Oct-17 22:59N 59°06' E 010°14'0 0.0
2019-Oct-17 22:30N 59°06' E 010°14'0 0.0
2019-Oct-17 22:00N 59°06' E 010°14'0 0.0
2019-Oct-17 21:30N 59°06' E 010°14'0 0.0
2019-Oct-17 20:58N 59°06' E 010°14'0 0.0
2019-Oct-17 20:28N 59°06' E 010°14'0 0.0
2019-Oct-17 20:00N 59°06' E 010°14'1 2.8
2019-Oct-17 19:31N 59°08' E 010°14'0 0.3
2019-Oct-17 19:01N 59°07' E 010°14'611.7
2019-Oct-17 18:30N 59°02' E 010°16'714.5
2019-Oct-17 18:01N 59°00' E 010°30'815.8
2019-Oct-17 17:31N 59°02' E 010°45'815.2
2019-Oct-17 17:00N 58°59' E 010°59'613.0
2019-Oct-17 16:31N 58°56' E 011°10'0 0.4
2019-Oct-17 16:00N 58°56' E 011°10'5 9.8
2019-Oct-17 15:30N 58°58' E 011°02'714.5
2019-Oct-17 15:00N 59°01' E 010°49'714.6
2019-Oct-17 14:31N 59°01' E 010°35'714.5
2019-Oct-17 14:00N 59°01' E 010°21'612.2
2019-Oct-17 13:30N 59°06' E 010°14'2 3.2
2019-Oct-17 13:01N 59°08' E 010°14'0 0.5
2019-Oct-17 12:31N 59°07' E 010°14'611.6
2019-Oct-17 12:00N 59°02' E 010°16'714.3
2019-Oct-17 11:31N 59°01' E 010°30'714.6
2019-Oct-17 11:00N 59°02' E 010°44'714.4
2019-Oct-17 10:31N 59°00' E 010°58'714.3
2019-Oct-17 10:00N 58°56' E 011°09'1 1.5
2019-Oct-17 09:31N 58°56' E 011°10'0 0.5
2019-Oct-17 09:00N 58°56' E 011°10'713.0
2019-Oct-17 08:30N 58°59' E 010°59'714.9
2019-Oct-17 08:01N 59°02' E 010°45'815.0
2019-Oct-17 07:30N 59°00' E 010°31'714.5
2019-Oct-17 07:00N 59°02' E 010°17'611.9
2019-Oct-17 06:30N 59°07' E 010°14'0 0.7
2019-Oct-17 06:00N 59°08' E 010°14'1 1.0
2019-Oct-17 05:30N 59°07' E 010°14'1 1.9
2019-Oct-17 05:00N 59°06' E 010°14'0 0.0
2019-Oct-17 04:28N 59°06' E 010°14'0 0.0
2019-Oct-17 03:58N 59°06' E 010°14'0 0.0
2019-Oct-17 03:28N 59°06' E 010°14'0 0.0
2019-Oct-17 02:59N 59°06' E 010°14'0 0.0
2019-Oct-17 02:29N 59°06' E 010°14'0 0.0
2019-Oct-17 01:59N 59°06' E 010°14'0 0.0
2019-Oct-17 01:30N 59°06' E 010°14'0 0.0
2019-Oct-17 01:00N 59°06' E 010°14'0 0.0
2019-Oct-17 00:30N 59°06' E 010°14'0 0.0
2019-Oct-16 23:58N 59°06' E 010°14'0 0.0
2019-Oct-16 23:28N 59°06' E 010°14'0 0.0
2019-Oct-16 22:58N 59°06' E 010°14'0 0.0
2019-Oct-16 22:29N 59°06' E 010°14'0 0.0
2019-Oct-16 21:59N 59°06' E 010°14'0 0.0
2019-Oct-16 21:29N 59°06' E 010°14'0 0.0
2019-Oct-16 21:00N 59°06' E 010°14'0 0.0
2019-Oct-16 20:30N 59°06' E 010°14'0 0.0
2019-Oct-16 20:00N 59°06' E 010°14'1 1.7
2019-Oct-16 19:31N 59°07' E 010°14'0 0.7
2019-Oct-16 19:00N 59°07' E 010°14'611.5
2019-Oct-16 18:30N 59°02' E 010°16'714.5
2019-Oct-16 18:00N 59°00' E 010°30'815.8
2019-Oct-16 17:31N 59°02' E 010°45'815.1
2019-Oct-16 17:00N 58°60' E 010°59'713.3
2019-Oct-16 16:30N 58°56' E 011°10'0 0.4
2019-Oct-16 16:00N 58°56' E 011°10'4 8.9
2019-Oct-16 15:30N 58°58' E 011°02'714.6
2019-Oct-16 15:01N 59°01' E 010°50'714.8
2019-Oct-16 14:31N 59°01' E 010°36'714.3
2019-Oct-16 14:01N 59°01' E 010°22'612.1
2019-Oct-16 13:30N 59°06' E 010°14'2 3.9
2019-Oct-16 13:00N 59°08' E 010°14'0 0.0
2019-Oct-16 12:30N 59°08' E 010°14'510.1
2019-Oct-16 12:00N 59°03' E 010°15'714.4
2019-Oct-16 11:31N 59°00' E 010°28'815.7
2019-Oct-16 11:00N 59°02' E 010°44'714.9
2019-Oct-16 10:30N 59°00' E 010°58'714.4
2019-Oct-16 10:00N 58°56' E 011°09'1 1.2
2019-Oct-16 09:31N 58°56' E 011°10'0 0.1
2019-Oct-16 09:00N 58°56' E 011°10'612.0
2019-Oct-16 08:30N 58°59' E 011°00'816.2
2019-Oct-16 08:01N 59°02' E 010°45'815.7
2019-Oct-16 07:30N 59°00' E 010°30'714.8
2019-Oct-16 07:00N 59°02' E 010°16'611.6
2019-Oct-16 06:30N 59°07' E 010°14'0 0.4
2019-Oct-16 06:00N 59°08' E 010°14'1 1.1
2019-Oct-16 05:30N 59°07' E 010°14'1 1.8
2019-Oct-16 05:01N 59°06' E 010°14'0 0.0
2019-Oct-16 04:28N 59°06' E 010°14'0 0.0
2019-Oct-16 03:58N 59°06' E 010°14'0 0.0
2019-Oct-16 03:28N 59°06' E 010°14'0 0.0
2019-Oct-16 02:59N 59°06' E 010°14'0 0.0
2019-Oct-16 02:29N 59°06' E 010°14'0 0.0
2019-Oct-16 01:59N 59°06' E 010°14'0 0.0
2019-Oct-16 01:30N 59°06' E 010°14'0 0.0
2019-Oct-16 01:00N 59°06' E 010°14'0 0.0
2019-Oct-16 00:30N 59°06' E 010°14'0 0.0
2019-Oct-15 23:58N 59°06' E 010°14'0 0.0
2019-Oct-15 23:28N 59°06' E 010°14'0 0.0
2019-Oct-15 22:58N 59°06' E 010°14'0 0.0
2019-Oct-15 22:29N 59°06' E 010°14'0 0.0
2019-Oct-15 21:59N 59°06' E 010°14'0 0.0
2019-Oct-15 21:29N 59°06' E 010°14'0 0.0
2019-Oct-15 21:00N 59°06' E 010°14'0 0.0
2019-Oct-15 20:30N 59°06' E 010°14'0 0.0
2019-Oct-15 20:00N 59°06' E 010°14'1 2.5
2019-Oct-15 19:31N 59°07' E 010°14'0 0.4
2019-Oct-15 19:01N 59°08' E 010°14'4 8.7
2019-Oct-15 18:30N 59°03' E 010°15'714.8
2019-Oct-15 18:00N 59°00' E 010°28'816.6
2019-Oct-15 17:30N 59°02' E 010°44'816.3
2019-Oct-15 17:00N 58°60' E 010°59'712.9
2019-Oct-15 16:30N 58°56' E 011°10'0 0.1
2019-Oct-15 16:00N 58°56' E 011°10'5 9.0
2019-Oct-15 15:30N 58°58' E 011°02'714.7
2019-Oct-15 15:00N 59°01' E 010°50'714.7
2019-Oct-15 14:30N 59°00' E 010°36'714.6
2019-Oct-15 14:00N 59°01' E 010°21'612.4
2019-Oct-15 13:31N 59°06' E 010°14'2 3.4
2019-Oct-15 13:01N 59°08' E 010°14'0 0.5
2019-Oct-15 12:31N 59°07' E 010°14'611.6
2019-Oct-15 12:00N 59°02' E 010°16'714.3
2019-Oct-15 11:30N 59°00' E 010°30'815.1
2019-Oct-15 11:00N 59°02' E 010°44'714.8
2019-Oct-15 10:30N 58°60' E 010°58'714.4
2019-Oct-15 10:00N 58°56' E 011°10'0 0.5
2019-Oct-15 09:30N 58°56' E 011°10'0 0.6
2019-Oct-15 09:00N 58°56' E 011°10'713.2
2019-Oct-15 08:30N 58°60' E 010°59'815.3
2019-Oct-15 08:01N 59°02' E 010°45'815.2
2019-Oct-15 07:30N 59°00' E 010°30'714.8
2019-Oct-15 07:01N 59°02' E 010°16'611.6
2019-Oct-15 06:30N 59°07' E 010°14'0 0.3
2019-Oct-15 06:00N 59°08' E 010°14'1 1.5
2019-Oct-15 05:30N 59°07' E 010°14'1 1.4
2019-Oct-15 05:00N 59°06' E 010°14'0 0.0
2019-Oct-15 04:28N 59°06' E 010°14'0 0.0
2019-Oct-15 03:58N 59°06' E 010°14'0 0.0
2019-Oct-15 03:29N 59°06' E 010°14'0 0.0
2019-Oct-15 02:59N 59°06' E 010°14'0 0.0
2019-Oct-15 02:29N 59°06' E 010°14'0 0.0
2019-Oct-15 02:00N 59°06' E 010°14'0 0.0
2019-Oct-15 01:30N 59°06' E 010°14'0 0.0
2019-Oct-15 01:00N 59°06' E 010°14'0 0.0
2019-Oct-15 00:28N 59°06' E 010°14'0 0.0
2019-Oct-14 23:55N 59°06' E 010°14'0 0.0
2019-Oct-14 23:28N 59°06' E 010°14'0 0.0
2019-Oct-14 22:59N 59°06' E 010°14'0 0.0
2019-Oct-14 22:29N 59°06' E 010°14'0 0.0
2019-Oct-14 21:59N 59°06' E 010°14'0 0.0
2019-Oct-14 21:30N 59°06' E 010°14'0 0.0
2019-Oct-14 21:00N 59°06' E 010°14'0 0.0
2019-Oct-14 20:30N 59°06' E 010°14'0 0.0
2019-Oct-14 19:58N 59°06' E 010°14'0 0.4
2019-Oct-14 19:30N 59°06' E 010°14'1 2.5
2019-Oct-14 19:00N 59°08' E 010°14'5 9.6
2019-Oct-14 18:30N 59°03' E 010°15'714.9
2019-Oct-14 18:00N 59°00' E 010°29'815.5
2019-Oct-14 17:30N 59°02' E 010°44'815.5
2019-Oct-14 17:00N 58°60' E 010°59'713.6
2019-Oct-14 16:30N 58°56' E 011°10'0 0.7
2019-Oct-14 16:00N 58°56' E 011°10'5 9.4
2019-Oct-14 15:30N 58°58' E 011°02'714.3
2019-Oct-14 15:00N 59°01' E 010°50'714.6
2019-Oct-14 14:30N 59°01' E 010°35'714.5
2019-Oct-14 14:00N 59°01' E 010°21'612.4
2019-Oct-14 13:30N 59°06' E 010°14'2 3.2
2019-Oct-14 13:01N 59°08' E 010°14'0 0.1
2019-Oct-14 12:31N 59°08' E 010°14'611.3
2019-Oct-14 12:00N 59°02' E 010°16'714.3
2019-Oct-14 11:31N 59°00' E 010°29'714.4
2019-Oct-14 11:01N 59°01' E 010°43'714.6
2019-Oct-14 10:30N 59°00' E 010°57'714.9
2019-Oct-14 10:00N 58°56' E 011°09'1 1.5
2019-Oct-14 09:30N 58°56' E 011°10'0 0.6
2019-Oct-14 09:00N 58°56' E 011°10'713.3
2019-Oct-14 08:30N 58°60' E 010°59'715.1
2019-Oct-14 08:00N 59°02' E 010°45'815.1
2019-Oct-14 07:30N 59°00' E 010°30'714.8
2019-Oct-14 07:00N 59°02' E 010°16'611.9
2019-Oct-14 06:30N 59°07' E 010°14'0 0.5
2019-Oct-14 06:00N 59°08' E 010°14'1 1.4
2019-Oct-14 05:30N 59°07' E 010°14'1 1.4
2019-Oct-14 05:00N 59°06' E 010°14'0 0.0
2019-Oct-14 04:29N 59°06' E 010°14'0 0.0
2019-Oct-14 03:59N 59°06' E 010°14'0 0.0
2019-Oct-14 03:29N 59°06' E 010°14'0 0.0
2019-Oct-14 02:57N 59°06' E 010°14'0 0.0
2019-Oct-14 02:30N 59°06' E 010°14'0 0.0
2019-Oct-14 02:00N 59°06' E 010°14'0 0.0
2019-Oct-14 01:28N 59°06' E 010°14'0 0.0
2019-Oct-14 00:58N 59°06' E 010°14'0 0.0
2019-Oct-14 00:28N 59°06' E 010°14'0 0.0
2019-Oct-13 23:59N 59°06' E 010°14'0 0.0
2019-Oct-13 23:29N 59°06' E 010°14'0 0.0
2019-Oct-13 22:59N 59°06' E 010°14'0 0.0
2019-Oct-13 22:30N 59°06' E 010°14'0 0.0
2019-Oct-13 22:00N 59°06' E 010°14'0 0.0
2019-Oct-13 21:30N 59°06' E 010°14'0 0.0
2019-Oct-13 20:58N 59°06' E 010°14'0 0.0
2019-Oct-13 20:28N 59°06' E 010°14'0 0.0
2019-Oct-13 19:58N 59°06' E 010°14'0 0.2
2019-Oct-13 19:30N 59°06' E 010°14'1 2.7
2019-Oct-13 19:00N 59°08' E 010°14'4 8.7
2019-Oct-13 18:30N 59°03' E 010°15'715.0
2019-Oct-13 18:01N 59°00' E 010°28'816.1
2019-Oct-13 17:31N 59°02' E 010°44'816.0
2019-Oct-13 17:00N 58°60' E 010°59'713.3
2019-Oct-13 16:30N 58°56' E 011°10'0 0.3
2019-Oct-13 16:00N 58°56' E 011°10'510.0
2019-Oct-13 15:30N 58°58' E 011°02'714.9
2019-Oct-13 15:00N 59°02' E 010°49'714.6
2019-Oct-13 14:30N 59°01' E 010°35'714.8
2019-Oct-13 14:01N 59°01' E 010°21'612.6
2019-Oct-13 13:31N 59°06' E 010°14'1 2.6
2019-Oct-13 13:01N 59°08' E 010°14'0 0.1
2019-Oct-13 12:31N 59°08' E 010°14'611.4
2019-Oct-13 12:00N 59°02' E 010°16'714.5
2019-Oct-13 11:30N 59°00' E 010°30'714.2
2019-Oct-13 11:00N 59°02' E 010°43'714.3
2019-Oct-13 10:30N 59°00' E 010°57'814.9
2019-Oct-13 10:00N 58°56' E 011°09'1 1.7
2019-Oct-13 09:30N 58°56' E 011°10'1 1.4
2019-Oct-13 09:00N 58°56' E 011°09'713.8
2019-Oct-13 08:30N 58°60' E 010°58'714.8
2019-Oct-13 08:01N 59°02' E 010°44'815.3
2019-Oct-13 07:30N 58°60' E 010°30'815.0
2019-Oct-13 07:01N 59°02' E 010°16'611.3
2019-Oct-13 06:30N 59°07' E 010°14'0 0.2
2019-Oct-13 06:00N 59°08' E 010°14'1 1.1
2019-Oct-13 05:30N 59°07' E 010°14'1 1.7
2019-Oct-13 05:00N 59°06' E 010°14'0 0.0
2019-Oct-13 04:29N 59°06' E 010°14'0 0.0
2019-Oct-13 03:59N 59°06' E 010°14'0 0.0
2019-Oct-13 03:29N 59°06' E 010°14'0 0.0
2019-Oct-13 03:00N 59°06' E 010°14'0 0.0
2019-Oct-13 02:30N 59°06' E 010°14'0 0.0
2019-Oct-13 02:00N 59°06' E 010°14'0 0.0
2019-Oct-13 01:28N 59°06' E 010°14'0 0.0
2019-Oct-13 00:58N 59°06' E 010°14'  

Dump ship's entire track history